| time (UTC) | temp F | wind direction | speed MPH | gust MPH | rain 1hr in | rain 24hr in | rain mn in | humidity % | barometer mb |
| 20260509143818 | 61 | 248 | 3.0 | 5.0 | 0.00 | 0.01 | 0.01 | 86 | 1007.5 |
| 20260509143316 | 61 | 254 | 3.0 | 6.0 | 0.00 | 0.01 | 0.01 | 86 | 1007.7 |
| 20260509142811 | 61 | 235 | 2.0 | 2.0 | 0.00 | 0.01 | 0.01 | 86 | 1007.6 |
| 20260509142308 | 61 | 209 | 1.0 | 1.0 | 0.00 | 0.01 | 0.01 | 88 | 1007.5 |
| 20260509141803 | 60 | 253 | 3.0 | 6.0 | 0.00 | 0.01 | 0.01 | 88 | 1007.6 |
| 20260509141300 | 60 | 214 | 1.0 | 2.0 | 0.00 | 0.01 | 0.01 | 88 | 1007.7 |
| 20260509140757 | 60 | 236 | 3.0 | 5.0 | 0.00 | 0.01 | 0.01 | 87 | 1007.4 |
| 20260509140254 | 59 | 232 | 2.0 | 3.0 | 0.00 | 0.01 | 0.01 | 89 | 1007.4 |
| 20260509135752 | 59 | 249 | 3.0 | 5.0 | 0.00 | 0.01 | 0.01 | 89 | 1007.3 |
| 20260509135249 | 60 | 230 | 3.0 | 3.0 | 0.00 | 0.01 | 0.01 | 90 | 1007.3 |
| 20260509134746 | 59 | 230 | 2.0 | 2.0 | 0.00 | 0.01 | 0.01 | 91 | 1007.2 |
| 20260509134244 | 58 | 248 | 1.0 | 2.0 | 0.00 | 0.01 | 0.01 | 92 | 1007.1 |
| 20260509133741 | 58 | 196 | 1.0 | 1.0 | 0.00 | 0.01 | 0.01 | 93 | 1007.2 |
| 20260509133237 | 57 | 252 | 3.0 | 5.0 | 0.00 | 0.01 | 0.01 | 95 | 1007.2 |
| 20260509132736 | 56 | 222 | 3.0 | 3.0 | 0.00 | 0.01 | 0.01 | 97 | 1007.3 |
| 20260509132235 | 56 | 207 | 2.0 | 2.0 | 0.00 | 0.01 | 0.01 | 99 | 1007.3 |
| 20260509131730 | 55 | 231 | 2.0 | 2.0 | 0.00 | 0.01 | 0.01 | 99 | 1007.2 |
| 20260509131227 | 55 | 254 | 2.0 | 2.0 | 0.00 | 0.01 | 0.01 | 99 | 1007.1 |
| 20260509130723 | 55 | 231 | 1.0 | 1.0 | 0.00 | 0.01 | 0.01 | 99 | 1007.1 |
| 20260509130219 | 55 | 219 | 1.0 | 1.0 | 0.00 | 0.01 | 0.01 | 99 | 1007.1 |
| 20260509125716 | 54 | 209 | 0.0 | 1.0 | 0.00 | 0.01 | 0.01 | 99 | 1007.2 |
| 20260509125213 | 54 | 219 | 1.0 | 1.0 | 0.00 | 0.01 | 0.01 | 99 | 1007.1 |
| 20260509124709 | 54 | 211 | 1.0 | 1.0 | 0.00 | 0.01 | 0.01 | 99 | 1007.0 |
| 20260509124206 | 53 | 211 | 0.0 | 1.0 | 0.00 | 0.01 | 0.01 | 99 | 1007.3 |
| 20260509123704 | 53 | 233 | 1.0 | 1.0 | 0.00 | 0.01 | 0.01 | 99 | 1007.1 |
| 20260509123201 | 53 | 211 | 0.0 | 0.0 | 0.00 | 0.01 | 0.01 | 99 | 1007.3 |
| 20260509122656 | 53 | 214 | 0.0 | 0.0 | 0.00 | 0.01 | 0.01 | 99 | 1007.4 |
| 20260509122154 | 53 | 213 | 0.0 | 0.0 | 0.00 | 0.01 | 0.01 | 99 | 1007.1 |
| 20260509121650 | 53 | 212 | 0.0 | 0.0 | 0.00 | 0.01 | 0.01 | 99 | 1007.5 |
| 20260509121148 | 53 | 216 | 0.0 | 0.0 | 0.00 | 0.01 | 0.01 | 99 | 1007.4 |
| 20260509120646 | 53 | 214 | 0.0 | 0.0 | 0.00 | 0.01 | 0.01 | 99 | 1007.3 |
| 20260509120144 | 52 | 210 | 0.0 | 0.0 | 0.00 | 0.01 | 0.01 | 99 | 1007.3 |
| 20260509115641 | 52 | 217 | 0.0 | 0.0 | 0.00 | 0.01 | 0.01 | 99 | 1007.2 |
| 20260509115138 | 52 | 216 | 0.0 | 0.0 | 0.00 | 0.01 | 0.01 | 99 | 1007.2 |
| 20260509114637 | 51 | 217 | 0.0 | 0.0 | 0.00 | 0.01 | 0.01 | 99 | 1007.0 |
| 20260509114135 | 51 | 213 | 0.0 | 0.0 | 0.00 | 0.01 | 0.01 | 99 | 1006.8 |
| 20260509113633 | 51 | 212 | 0.0 | 0.0 | 0.00 | 0.01 | 0.01 | 99 | 1006.8 |
| 20260509113124 | 51 | 217 | 0.0 | 0.0 | 0.00 | 0.01 | 0.01 | 99 | 1006.8 |
| 20260509112621 | 51 | 211 | 0.0 | 0.0 | 0.00 | 0.01 | 0.01 | 99 | 1006.5 |
| 20260509112118 | 51 | 210 | 0.0 | 0.0 | 0.00 | 0.01 | 0.01 | 99 | 1007.0 |
| 20260509111615 | 51 | 215 | 0.0 | 0.0 | 0.00 | 0.01 | 0.01 | 99 | 1007.0 |
| 20260509111112 | 51 | 212 | 0.0 | 0.0 | 0.00 | 0.01 | 0.01 | 99 | 1006.9 |
| 20260509110609 | 51 | 213 | 0.0 | 0.0 | 0.00 | 0.01 | 0.01 | 99 | 1006.6 |
| 20260509110106 | 51 | 208 | 0.0 | 0.0 | 0.00 | 0.01 | 0.01 | 99 | 1006.7 |
| 20260509105604 | 51 | 206 | 0.0 | 0.0 | 0.00 | 0.01 | 0.01 | 99 | 1006.7 |
| 20260509105101 | 51 | 215 | 0.0 | 0.0 | 0.00 | 0.01 | 0.01 | 99 | 1006.6 |
| 20260509104558 | 51 | 211 | 0.0 | 0.0 | 0.00 | 0.01 | 0.01 | 99 | 1006.5 |
| 20260509104055 | 51 | 216 | 0.0 | 0.0 | 0.00 | 0.01 | 0.01 | 99 | 1006.5 |
| 20260509103553 | 51 | 193 | 0.0 | 0.0 | 0.00 | 0.01 | 0.01 | 99 | 1006.8 |
| 20260509103051 | 50 | 215 | 0.0 | 0.0 | 0.00 | 0.01 | 0.01 | 99 | 1006.8 |
| 20260509102548 | 50 | 213 | 0.0 | 0.0 | 0.00 | 0.01 | 0.01 | 99 | 1006.9 |
| 20260509102045 | 50 | 215 | 0.0 | 0.0 | 0.00 | 0.01 | 0.01 | 99 | 1006.7 |
| 20260509101541 | 50 | 214 | 0.0 | 0.0 | 0.00 | 0.01 | 0.01 | 99 | 1006.8 |
| 20260509101038 | 50 | 211 | 0.0 | 0.0 | 0.00 | 0.01 | 0.01 | 99 | 1006.6 |
| 20260509100535 | 50 | 209 | 0.0 | 0.0 | 0.00 | 0.01 | 0.01 | 99 | 1006.7 |
| 20260509100033 | 50 | 207 | 0.0 | 0.0 | 0.00 | 0.01 | 0.01 | 99 | 1006.6 |
| 20260509095529 | 49 | 213 | 0.0 | 0.0 | 0.00 | 0.01 | 0.01 | 99 | 1006.9 |
| 20260509095027 | 49 | 215 | 0.0 | 0.0 | 0.00 | 0.01 | 0.01 | 99 | 1006.8 |
| 20260509094522 | 49 | 215 | 0.0 | 0.0 | 0.00 | 0.01 | 0.01 | 99 | 1006.8 |
| 20260509094020 | 49 | 215 | 0.0 | 0.0 | 0.00 | 0.01 | 0.01 | 99 | 1006.9 |
| 20260509093518 | 50 | 215 | 0.0 | 0.0 | 0.05 | 0.01 | 0.01 | 99 | 1006.8 |
| 20260509093015 | 50 | 215 | 0.0 | 0.0 | 0.05 | 0.01 | 0.01 | 99 | 1007.1 |
| 20260509092513 | 50 | 215 | 0.0 | 0.0 | 0.05 | 0.01 | 0.01 | 99 | 1006.7 |
| 20260509092012 | 50 | 215 | 0.0 | 0.0 | 0.00 | 0.00 | 0.00 | 99 | 1006.8 |
| 20260509091509 | 50 | 213 | 0.0 | 0.0 | 0.00 | 0.00 | 0.00 | 99 | 1006.8 |
| 20260509091005 | 50 | 214 | 0.0 | 0.0 | 0.00 | 0.00 | 0.00 | 99 | 1006.7 |
| 20260509090502 | 50 | 216 | 0.0 | 0.0 | 0.00 | 0.00 | 0.00 | 99 | 1006.8 |
| 20260509090000 | 50 | 213 | 0.0 | 0.0 | 0.00 | 0.00 | 0.00 | 99 | 1006.7 |
| 20260509085457 | 50 | 211 | 0.0 | 0.0 | 0.00 | 0.00 | 0.00 | 99 | 1006.7 |
| 20260509084953 | 50 | 214 | 0.0 | 0.0 | 0.00 | 0.00 | 0.00 | 99 | 1006.7 |
| 20260509084450 | 50 | 214 | 0.0 | 0.0 | 0.00 | 0.00 | 0.00 | 99 | 1006.5 |
| 20260509083947 | 50 | 214 | 0.0 | 0.0 | 0.00 | 0.00 | 0.00 | 99 | 1006.6 |
| 20260509083445 | 50 | 214 | 0.0 | 0.0 | 0.00 | 0.00 | 0.00 | 99 | 1006.6 |
| 20260509082941 | 50 | 212 | 0.0 | 0.0 | 0.00 | 0.00 | 0.00 | 99 | 1006.7 |
| 20260509082438 | 50 | 212 | 0.0 | 0.0 | 0.00 | 0.00 | 0.00 | 99 | 1006.6 |
| 20260509081935 | 50 | 212 | 0.0 | 0.0 | 0.00 | 0.00 | 0.00 | 99 | 1006.6 |
| 20260509081432 | 49 | 212 | 0.0 | 0.0 | 0.00 | 0.00 | 0.00 | 99 | 1006.4 |
| 20260509080929 | 49 | 212 | 0.0 | 0.0 | 0.00 | 0.00 | 0.00 | 99 | 1006.6 |
| 20260509080427 | 50 | 212 | 0.0 | 0.0 | 0.00 | 0.00 | 0.00 | 99 | 1006.5 |
| 20260509075926 | 50 | 210 | 0.0 | 0.0 | 0.00 | 0.00 | 0.00 | 99 | 1006.6 |
| 20260509075422 | 50 | 210 | 0.0 | 0.0 | 0.00 | 0.00 | 0.00 | 99 | 1006.4 |
| 20260509074920 | 50 | 210 | 0.0 | 0.0 | 0.00 | 0.00 | 0.00 | 99 | 1006.5 |
| 20260509074417 | 50 | 210 | 0.0 | 0.0 | 0.00 | 0.00 | 0.00 | 99 | 1006.4 |
| 20260509073913 | 50 | 212 | 0.0 | 0.0 | 0.00 | 0.00 | 0.00 | 99 | 1006.6 |
| 20260509073410 | 50 | 213 | 0.0 | 0.0 | 0.00 | 0.00 | 0.00 | 99 | 1006.7 |
| 20260509072906 | 50 | 213 | 0.0 | 0.0 | 0.00 | 0.00 | 0.00 | 99 | 1006.6 |
| 20260509072403 | 50 | 213 | 0.0 | 0.0 | 0.00 | 0.00 | 0.00 | 99 | 1006.6 |
| 20260509071859 | 51 | 213 | 0.0 | 0.0 | 0.00 | 0.00 | 0.00 | 99 | 1006.8 |
| 20260509071356 | 50 | 212 | 0.0 | 0.0 | 0.00 | 0.00 | 0.00 | 99 | 1006.7 |
| 20260509070854 | 50 | 209 | 0.0 | 0.0 | 0.00 | 0.00 | 0.00 | 99 | 1006.8 |
| 20260509070350 | 49 | 209 | 0.0 | 0.0 | 0.00 | 0.00 | 0.00 | 99 | 1006.8 |
| 20260509065846 | 49 | 209 | 0.0 | 0.0 | 0.00 | 0.00 | 0.00 | 99 | 1006.8 |
| 20260509065343 | 50 | 209 | 0.0 | 0.0 | 0.00 | 0.00 | 0.00 | 99 | 1006.7 |
| 20260509064839 | 50 | 209 | 0.0 | 0.0 | 0.00 | 0.00 | 0.00 | 99 | 1006.8 |
| 20260509064337 | 50 | 209 | 0.0 | 0.0 | 0.00 | 0.00 | 0.00 | 99 | 1007.0 |
| 20260509063834 | 50 | 209 | 0.0 | 0.0 | 0.00 | 0.00 | 0.00 | 99 | 1007.1 |
| 20260509063330 | 50 | 209 | 0.0 | 0.0 | 0.00 | 0.00 | 0.00 | 99 | 1007.1 |
| 20260509062827 | 51 | 209 | 0.0 | 0.0 | 0.00 | 0.00 | 0.00 | 99 | 1007.2 |
| 20260509062324 | 51 | 209 | 0.0 | 0.0 | 0.00 | 0.00 | 0.00 | 99 | 1007.2 |
| 20260509061821 | 51 | 209 | 0.0 | 0.0 | 0.00 | 0.00 | 0.00 | 99 | 1007.1 |
| 20260509061320 | 51 | 209 | 0.0 | 0.0 | 0.00 | 0.00 | 0.00 | 99 | 1007.1 |
| 20260509060816 | 51 | 209 | 0.0 | 0.0 | 0.00 | 0.00 | 0.00 | 99 | 1007.7 |
| 20260509060314 | 51 | 210 | 0.0 | 0.0 | 0.00 | 0.00 | 0.00 | 99 | 1007.4 |
| 20260509055809 | 51 | 210 | 0.0 | 0.0 | 0.00 | 0.00 | 0.00 | 99 | 1007.6 |
| 20260509055306 | 51 | 210 | 0.0 | 0.0 | 0.00 | 0.00 | 0.00 | 99 | 1007.7 |
| 20260509054802 | 51 | 210 | 0.0 | 0.0 | 0.00 | 0.00 | 0.00 | 99 | 1007.4 |
| 20260509054258 | 51 | 210 | 0.0 | 0.0 | 0.00 | 0.00 | 0.00 | 99 | 1007.4 |
| 20260509053757 | 52 | 210 | 0.0 | 0.0 | 0.00 | 0.00 | 0.00 | 99 | 1007.7 |
| 20260509053253 | 51 | 210 | 0.0 | 0.0 | 0.00 | 0.00 | 0.00 | 99 | 1007.6 |
| 20260509052751 | 51 | 211 | 0.0 | 0.0 | 0.00 | 0.00 | 0.00 | 99 | 1007.8 |
| 20260509052249 | 52 | 211 | 0.0 | 0.0 | 0.00 | 0.00 | 0.00 | 99 | 1007.8 |
| 20260509051746 | 52 | 212 | 0.0 | 0.0 | 0.00 | 0.00 | 0.00 | 99 | 1008.0 |
| 20260509051244 | 52 | 212 | 0.0 | 0.0 | 0.00 | 0.00 | 0.00 | 99 | 1007.8 |
| 20260509050740 | 52 | 212 | 0.0 | 0.0 | 0.00 | 0.00 | 0.00 | 99 | 1008.0 |
| 20260509050237 | 51 | 212 | 0.0 | 0.0 | 0.00 | 0.00 | 0.00 | 99 | 1007.8 |
| 20260509045734 | 51 | 212 | 0.0 | 0.0 | 0.00 | 0.12 | 0.12 | 99 | 1007.7 |
| 20260509045231 | 52 | 213 | 0.0 | 0.0 | 0.00 | 0.12 | 0.12 | 99 | 1007.8 |
| 20260509044729 | 52 | 213 | 0.0 | 0.0 | 0.00 | 0.12 | 0.12 | 99 | 1008.0 |
| 20260509044226 | 52 | 213 | 0.0 | 0.0 | 0.00 | 0.12 | 0.12 | 99 | 1007.8 |
| 20260509043722 | 52 | 213 | 0.0 | 0.0 | 0.00 | 0.12 | 0.12 | 99 | 1007.9 |
| 20260509043218 | 51 | 213 | 0.0 | 0.0 | 0.00 | 0.12 | 0.12 | 99 | 1007.6 |
| 20260509042715 | 52 | 213 | 0.0 | 0.0 | 0.00 | 0.12 | 0.12 | 99 | 1008.0 |
| 20260509042211 | 52 | 213 | 0.0 | 0.0 | 0.00 | 0.12 | 0.12 | 99 | 1007.9 |
| 20260509041708 | 52 | 213 | 0.0 | 0.0 | 0.00 | 0.12 | 0.12 | 99 | 1007.9 |
| 20260509041205 | 52 | 213 | 0.0 | 0.0 | 0.00 | 0.12 | 0.12 | 99 | 1008.0 |
| 20260509040704 | 52 | 213 | 0.0 | 0.0 | 0.00 | 0.12 | 0.12 | 99 | 1007.9 |
| 20260509040200 | 53 | 213 | 0.0 | 0.0 | 0.00 | 0.12 | 0.12 | 99 | 1007.9 |
| 20260509035657 | 53 | 213 | 0.0 | 0.0 | 0.00 | 0.12 | 0.12 | 99 | 1008.1 |
| 20260509035153 | 53 | 213 | 0.0 | 0.0 | 0.00 | 0.12 | 0.12 | 99 | 1008.2 |
| 20260509034651 | 53 | 213 | 0.0 | 0.0 | 0.00 | 0.12 | 0.12 | 99 | 1007.9 |
| 20260509034148 | 53 | 213 | 0.0 | 0.0 | 0.00 | 0.12 | 0.12 | 99 | 1008.2 |
| 20260509033645 | 54 | 216 | 0.0 | 0.0 | 0.00 | 0.12 | 0.12 | 99 | 1008.1 |
| 20260509033142 | 54 | 215 | 0.0 | 0.0 | 0.00 | 0.12 | 0.12 | 99 | 1008.0 |
| 20260509032639 | 54 | 217 | 0.0 | 0.0 | 0.00 | 0.12 | 0.12 | 99 | 1008.2 |
| 20260509032136 | 54 | 218 | 0.0 | 0.0 | 0.00 | 0.12 | 0.12 | 98 | 1008.2 |
| 20260509031634 | 54 | 217 | 0.0 | 0.0 | 0.00 | 0.12 | 0.12 | 98 | 1008.2 |
| 20260509031131 | 55 | 214 | 0.0 | 0.0 | 0.00 | 0.12 | 0.12 | 98 | 1008.0 |
| 20260509030629 | 55 | 212 | 0.0 | 0.0 | 0.00 | 0.12 | 0.12 | 98 | 1008.0 |
| 20260509030126 | 55 | 218 | 1.0 | 2.0 | 0.00 | 0.12 | 0.12 | 98 | 1007.9 |
| 20260509025622 | 55 | 212 | 0.0 | 0.0 | 0.00 | 0.12 | 0.12 | 97 | 1008.0 |
| 20260509025118 | 55 | 217 | 1.0 | 1.0 | 0.00 | 0.12 | 0.12 | 97 | 1008.0 |
| 20260509024613 | 55 | 214 | 0.0 | 0.0 | 0.00 | 0.12 | 0.12 | 97 | 1008.5 |
| 20260509024110 | 55 | 205 | 0.0 | 0.0 | 0.00 | 0.12 | 0.12 | 97 | 1008.5 |
| 20260509023608 | 55 | 215 | 0.0 | 0.0 | 0.00 | 0.12 | 0.12 | 97 | 1008.4 |
| 20260509023105 | 55 | 215 | 0.0 | 0.0 | 0.00 | 0.12 | 0.12 | 96 | 1008.7 |
| 20260509022600 | 55 | 215 | 0.0 | 0.0 | 0.00 | 0.12 | 0.12 | 96 | 1008.3 |
| 20260509022059 | 55 | 215 | 0.0 | 0.0 | 0.00 | 0.12 | 0.12 | 96 | 1008.4 |
| 20260509021555 | 56 | 215 | 0.0 | 0.0 | 0.00 | 0.12 | 0.12 | 96 | 1008.1 |
| 20260509021052 | 56 | 210 | 0.0 | 0.0 | 0.00 | 0.12 | 0.12 | 95 | 1008.4 |
| 20260509020551 | 56 | 212 | 0.0 | 0.0 | 0.00 | 0.12 | 0.12 | 95 | 1008.4 |
| 20260509020047 | 56 | 212 | 0.0 | 0.0 | 0.00 | 0.12 | 0.12 | 95 | 1008.2 |
| 20260509015546 | 56 | 211 | 0.0 | 0.0 | 0.00 | 0.12 | 0.12 | 94 | 1008.5 |
| 20260509015043 | 56 | 214 | 0.0 | 0.0 | 0.00 | 0.12 | 0.12 | 94 | 1008.2 |
| 20260509014539 | 55 | 215 | 0.0 | 0.0 | 0.00 | 0.12 | 0.12 | 94 | 1008.3 |
| 20260509014036 | 55 | 215 | 0.0 | 0.0 | 0.00 | 0.12 | 0.12 | 93 | 1008.1 |
| 20260509013533 | 55 | 215 | 0.0 | 0.0 | 0.00 | 0.12 | 0.12 | 93 | 1008.2 |
| 20260509013029 | 55 | 214 | 0.0 | 0.0 | 0.00 | 0.12 | 0.12 | 92 | 1008.2 |
| 20260509012526 | 56 | 215 | 0.0 | 0.0 | 0.00 | 0.12 | 0.12 | 92 | 1008.1 |
| 20260509012022 | 56 | 215 | 0.0 | 0.0 | 0.00 | 0.12 | 0.12 | 91 | 1008.1 |
| 20260509011520 | 57 | 215 | 0.0 | 0.0 | 0.00 | 0.12 | 0.12 | 90 | 1008.3 |
| 20260509011017 | 57 | 214 | 0.0 | 0.0 | 0.00 | 0.12 | 0.12 | 89 | 1008.1 |
| 20260509010515 | 57 | 214 | 0.0 | 0.0 | 0.00 | 0.12 | 0.12 | 89 | 1008.0 |
| 20260509010011 | 57 | 215 | 0.0 | 0.0 | 0.00 | 0.12 | 0.12 | 88 | 1008.1 |
| 20260509005509 | 57 | 216 | 0.0 | 0.0 | 0.00 | 0.12 | 0.12 | 88 | 1008.2 |
| 20260509005004 | 57 | 216 | 0.0 | 0.0 | 0.00 | 0.12 | 0.12 | 86 | 1008.0 |
| 20260509004501 | 58 | 216 | 0.0 | 0.0 | 0.00 | 0.12 | 0.12 | 85 | 1008.1 |
| 20260509003958 | 58 | 216 | 0.0 | 0.0 | 0.00 | 0.12 | 0.12 | 86 | 1007.9 |
| 20260509003456 | 58 | 216 | 0.0 | 0.0 | 0.00 | 0.12 | 0.12 | 84 | 1007.8 |
| 20260509002953 | 59 | 216 | 0.0 | 0.0 | 0.00 | 0.12 | 0.12 | 84 | 1008.0 |
| 20260509002451 | 59 | 216 | 0.0 | 0.0 | 0.00 | 0.12 | 0.12 | 83 | 1008.0 |
| 20260509001948 | 59 | 216 | 0.0 | 0.0 | 0.00 | 0.12 | 0.12 | 82 | 1007.9 |
| 20260509001444 | 59 | 216 | 0.0 | 0.0 | 0.00 | 0.12 | 0.12 | 82 | 1008.0 |
| 20260509000941 | 59 | 216 | 0.0 | 0.0 | 0.00 | 0.12 | 0.12 | 81 | 1008.0 |
| 20260509000440 | 59 | 216 | 0.0 | 0.0 | 0.00 | 0.12 | 0.12 | 81 | 1008.0 |
| 20260508235935 | 60 | 216 | 0.0 | 0.0 | 0.00 | 0.12 | 0.12 | 80 | 1007.9 |
| 20260508235433 | 60 | 216 | 0.0 | 0.0 | 0.00 | 0.12 | 0.12 | 80 | 1008.0 |
| 20260508234929 | 60 | 211 | 0.0 | 1.0 | 0.00 | 0.12 | 0.12 | 79 | 1007.8 |
| 20260508234426 | 60 | 211 | 0.0 | 0.0 | 0.00 | 0.12 | 0.12 | 80 | 1008.0 |
| 20260508233924 | 60 | 211 | 0.0 | 0.0 | 0.00 | 0.12 | 0.12 | 79 | 1008.1 |
| 20260508233423 | 60 | 215 | 0.0 | 0.0 | 0.00 | 0.12 | 0.12 | 79 | 1008.2 |
| 20260508232919 | 60 | 213 | 0.0 | 0.0 | 0.00 | 0.12 | 0.12 | 79 | 1008.2 |
| 20260508232416 | 60 | 216 | 0.0 | 0.0 | 0.00 | 0.12 | 0.12 | 78 | 1008.2 |
| 20260508231914 | 60 | 221 | 0.0 | 1.0 | 0.00 | 0.12 | 0.12 | 77 | 1008.4 |
| 20260508231411 | 60 | 224 | 0.0 | 0.0 | 0.00 | 0.12 | 0.12 | 77 | 1008.3 |
| 20260508230907 | 60 | 203 | 0.0 | 1.0 | 0.00 | 0.12 | 0.12 | 77 | 1008.2 |
| 20260508230404 | 60 | 210 | 1.0 | 1.0 | 0.00 | 0.12 | 0.12 | 76 | 1008.4 |
| 20260508225901 | 60 | 206 | 0.0 | 0.0 | 0.00 | 0.12 | 0.12 | 76 | 1008.5 |
| 20260508225358 | 61 | 205 | 2.0 | 2.0 | 0.00 | 0.12 | 0.12 | 75 | 1008.5 |
| 20260508224856 | 61 | 221 | 0.0 | 1.0 | 0.00 | 0.12 | 0.12 | 76 | 1008.3 |
| 20260508224353 | 61 | 213 | 1.0 | 1.0 | 0.00 | 0.12 | 0.12 | 74 | 1008.4 |
| 20260508223850 | 61 | 205 | 1.0 | 2.0 | 0.00 | 0.12 | 0.12 | 75 | 1008.2 |
| 20260508223348 | 62 | 228 | 2.0 | 2.0 | 0.00 | 0.12 | 0.12 | 75 | 1008.5 |
| 20260508222845 | 62 | 204 | 2.0 | 3.0 | 0.00 | 0.12 | 0.12 | 74 | 1008.4 |
| 20260508222342 | 62 | 210 | 1.0 | 1.0 | 0.00 | 0.12 | 0.12 | 75 | 1008.5 |
| 20260508221839 | 62 | 226 | 2.0 | 2.0 | 0.00 | 0.12 | 0.12 | 76 | 1008.5 |
| 20260508221334 | 63 | 220 | 1.0 | 2.0 | 0.00 | 0.12 | 0.12 | 77 | 1008.1 |
| 20260508220831 | 62 | 217 | 2.0 | 2.0 | 0.00 | 0.12 | 0.12 | 77 | 1008.2 |
| 20260508220327 | 62 | 219 | 0.0 | 1.0 | 0.00 | 0.12 | 0.12 | 78 | 1008.3 |
| 20260508215824 | 62 | 251 | 2.0 | 3.0 | 0.00 | 0.12 | 0.12 | 78 | 1008.4 |
| 20260508215321 | 62 | 154 | 0.0 | 1.0 | 0.00 | 0.12 | 0.12 | 78 | 1008.4 |
| 20260508214818 | 62 | 199 | 3.0 | 5.0 | 0.00 | 0.12 | 0.12 | 79 | 1008.6 |
| 20260508214315 | 62 | 215 | 0.0 | 1.0 | 0.00 | 0.12 | 0.12 | 79 | 1008.5 |
| 20260508213811 | 62 | 210 | 1.0 | 2.0 | 0.00 | 0.12 | 0.12 | 79 | 1008.5 |
| 20260508213308 | 62 | 212 | 1.0 | 1.0 | 0.00 | 0.12 | 0.12 | 81 | 1008.5 |
| 20260508212804 | 62 | 209 | 1.0 | 1.0 | 0.00 | 0.12 | 0.12 | 82 | 1008.6 |
| 20260508212301 | 63 | 222 | 1.0 | 1.0 | 0.00 | 0.12 | 0.12 | 83 | 1008.6 |
| 20260508211756 | 62 | 219 | 0.0 | 0.0 | 0.00 | 0.12 | 0.12 | 83 | 1008.5 |
| 20260508211252 | 62 | 218 | 0.0 | 0.0 | 0.00 | 0.12 | 0.12 | 85 | 1008.8 |
| 20260508210750 | 62 | 216 | 0.0 | 0.0 | 0.00 | 0.12 | 0.12 | 85 | 1009.0 |
| 20260508210247 | 62 | 216 | 0.0 | 1.0 | 0.00 | 0.12 | 0.12 | 85 | 1008.8 |
| 20260508205744 | 62 | 218 | 0.0 | 0.0 | 0.00 | 0.12 | 0.12 | 85 | 1008.7 |
| 20260508205240 | 61 | 221 | 0.0 | 0.0 | 0.00 | 0.12 | 0.12 | 87 | 1009.3 |
| 20260508204736 | 61 | 220 | 0.0 | 0.0 | 0.00 | 0.12 | 0.12 | 85 | 1009.1 |
| 20260508204233 | 61 | 226 | 1.0 | 1.0 | 0.00 | 0.12 | 0.12 | 86 | 1009.2 |
| 20260508203729 | 61 | 219 | 0.0 | 0.0 | 0.00 | 0.12 | 0.12 | 85 | 1009.5 |
| 20260508203225 | 61 | 207 | 0.0 | 0.0 | 0.00 | 0.12 | 0.12 | 86 | 1009.4 |
| 20260508202721 | 60 | 220 | 0.0 | 1.0 | 0.00 | 0.12 | 0.12 | 86 | 1009.3 |
| 20260508202219 | 60 | 207 | 0.0 | 0.0 | 0.00 | 0.12 | 0.12 | 88 | 1009.4 |
| 20260508201715 | 60 | 219 | 0.0 | 0.0 | 0.00 | 0.12 | 0.12 | 88 | 1009.1 |
| 20260508201212 | 60 | 214 | 0.0 | 0.0 | 0.00 | 0.12 | 0.12 | 89 | 1009.2 |
| 20260508200709 | 59 | 214 | 0.0 | 0.0 | 0.00 | 0.12 | 0.12 | 90 | 1009.2 |
| 20260508200205 | 59 | 215 | 0.0 | 1.0 | 0.00 | 0.12 | 0.12 | 88 | 1009.3 |
| 20260508195702 | 59 | 215 | 0.0 | 0.0 | 0.00 | 0.12 | 0.12 | 88 | 1009.3 |
| 20260508195158 | 59 | 219 | 0.0 | 1.0 | 0.00 | 0.12 | 0.12 | 92 | 1009.4 |
| 20260508194655 | 59 | 227 | 0.0 | 0.0 | 0.00 | 0.12 | 0.12 | 92 | 1009.5 |
| 20260508194152 | 59 | 223 | 0.0 | 0.0 | 0.00 | 0.12 | 0.12 | 92 | 1009.2 |
| 20260508193649 | 58 | 223 | 0.0 | 0.0 | 0.00 | 0.12 | 0.12 | 91 | 1009.1 |
| 20260508193145 | 59 | 225 | 0.0 | 0.0 | 0.00 | 0.12 | 0.12 | 91 | 1009.1 |
| 20260508192642 | 58 | 226 | 0.0 | 0.0 | 0.00 | 0.12 | 0.12 | 92 | 1009.0 |
| 20260508192140 | 58 | 229 | 1.0 | 1.0 | 0.00 | 0.12 | 0.12 | 90 | 1009.1 |
| 20260508191636 | 58 | 208 | 0.0 | 0.0 | 0.00 | 0.12 | 0.12 | 93 | 1009.3 |
| 20260508191133 | 57 | 216 | 0.0 | 0.0 | 0.00 | 0.12 | 0.12 | 94 | 1009.4 |
| 20260508190630 | 57 | 241 | 0.0 | 1.0 | 0.00 | 0.12 | 0.12 | 95 | 1009.7 |
| 20260508190126 | 57 | 206 | 1.0 | 1.0 | 0.00 | 0.12 | 0.12 | 96 | 1009.3 |
| 20260508185618 | 57 | 219 | 0.0 | 0.0 | 0.00 | 0.12 | 0.12 | 97 | 1009.7 |
| 20260508185115 | 57 | 207 | 0.0 | 0.0 | 0.00 | 0.12 | 0.12 | 98 | 1009.9 |
| 20260508184613 | 56 | 211 | 0.0 | 0.0 | 0.00 | 0.12 | 0.12 | 98 | 1010.0 |
| 20260508184110 | 56 | 220 | 0.0 | 0.0 | 0.00 | 0.12 | 0.12 | 98 | 1010.0 |
| 20260508183606 | 56 | 217 | 0.0 | 0.0 | 0.00 | 0.12 | 0.12 | 98 | 1010.5 |
| 20260508183102 | 56 | 216 | 0.0 | 0.0 | 0.00 | 0.12 | 0.12 | 98 | 1010.2 |
| 20260508182558 | 56 | 215 | 0.0 | 0.0 | 0.00 | 0.12 | 0.12 | 98 | 1010.0 |
| 20260508182055 | 55 | 217 | 0.0 | 0.0 | 0.00 | 0.12 | 0.12 | 97 | 1010.1 |
| 20260508181555 | 55 | 216 | 0.0 | 0.0 | 0.00 | 0.12 | 0.12 | 97 | 1009.9 |
| 20260508181054 | 56 | 217 | 0.0 | 0.0 | 0.07 | 0.12 | 0.12 | 97 | 1010.0 |
| 20260508180550 | 55 | 217 | 0.0 | 0.0 | 0.07 | 0.12 | 0.12 | 97 | 1010.1 |
| 20260508180046 | 56 | 211 | 0.0 | 0.0 | 0.05 | 0.11 | 0.11 | 97 | 1010.1 |
| 20260508175543 | 56 | 219 | 0.0 | 0.0 | 0.12 | 0.11 | 0.11 | 97 | 1010.3 |
| 20260508175040 | 56 | 219 | 0.0 | 1.0 | 0.07 | 0.10 | 0.10 | 96 | 1010.5 |
| 20260508174538 | 55 | 208 | 0.0 | 0.0 | 0.00 | 0.09 | 0.09 | 96 | 1010.0 |
| 20260508174034 | 56 | 217 | 0.0 | 0.0 | 0.05 | 0.09 | 0.09 | 95 | 1010.3 |
| 20260508173531 | 56 | 222 | 1.0 | 1.0 | 0.05 | 0.09 | 0.09 | 94 | 1010.1 |
| 20260508173027 | 56 | 214 | 0.0 | 1.0 | 0.00 | 0.08 | 0.08 | 92 | 1010.2 |
| 20260508172525 | 56 | 210 | 1.0 | 1.0 | 0.00 | 0.08 | 0.08 | 93 | 1010.4 |
| 20260508172021 | 56 | 216 | 1.0 | 1.0 | 0.07 | 0.08 | 0.08 | 93 | 1010.3 |
| 20260508171518 | 56 | 213 | 0.0 | 0.0 | 0.07 | 0.08 | 0.08 | 94 | 1010.4 |
| 20260508171014 | 56 | 188 | 1.0 | 1.0 | 0.00 | 0.07 | 0.07 | 95 | 1010.8 |
| 20260508170512 | 56 | 211 | 0.0 | 0.0 | 0.00 | 0.07 | 0.07 | 95 | 1011.1 |
| 20260508170009 | 56 | 220 | 0.0 | 0.0 | 0.00 | 0.07 | 0.07 | 94 | 1011.2 |
| 20260508165506 | 56 | 217 | 0.0 | 0.0 | 0.05 | 0.07 | 0.07 | 94 | 1011.6 |
| 20260508165003 | 56 | 213 | 0.0 | 0.0 | 0.05 | 0.07 | 0.07 | 94 | 1011.7 |
| 20260508164459 | 55 | 221 | 0.0 | 0.0 | 0.00 | 0.06 | 0.06 | 93 | 1011.6 |
| 20260508163956 | 55 | 223 | 0.0 | 1.0 | 0.00 | 0.06 | 0.06 | 92 | 1011.5 |
| 20260508163454 | 56 | 216 | 0.0 | 0.0 | 0.07 | 0.06 | 0.06 | 92 | 1011.6 |
| 20260508162949 | 56 | 216 | 0.0 | 0.0 | 0.19 | 0.06 | 0.06 | 91 | 1011.6 |
| 20260508162447 | 57 | 218 | 1.0 | 1.0 | 0.31 | 0.05 | 0.05 | 87 | 1011.5 |
| 20260508161944 | 58 | 222 | 1.0 | 1.0 | 0.19 | 0.03 | 0.03 | 82 | 1011.4 |
| 20260508161441 | 59 | 225 | 1.0 | 1.0 | 0.00 | 0.00 | 0.00 | 76 | 1011.3 |
| 20260508160938 | 59 | 246 | 1.0 | 3.0 | 0.00 | 0.00 | 0.00 | 74 | 1011.5 |
| 20260508160437 | 59 | 191 | 1.0 | 2.0 | 0.00 | 0.00 | 0.00 | 74 | 1012.0 |
| 20260508155933 | 60 | 224 | 1.0 | 1.0 | 0.00 | 0.00 | 0.00 | 75 | 1011.8 |
| 20260508155430 | 59 | 225 | 0.0 | 1.0 | 0.00 | 0.00 | 0.00 | 76 | 1011.8 |
| 20260508154927 | 60 | 216 | 2.0 | 2.0 | 0.00 | 0.00 | 0.00 | 73 | 1011.9 |
| 20260508154424 | 60 | 224 | 1.0 | 1.0 | 0.00 | 0.00 | 0.00 | 73 | 1011.5 |
| 20260508153921 | 61 | 237 | 2.0 | 3.0 | 0.00 | 0.00 | 0.00 | 72 | 1011.2 |
| 20260508153418 | 61 | 220 | 1.0 | 1.0 | 0.00 | 0.00 | 0.00 | 71 | 1011.6 |
| 20260508152914 | 62 | 207 | 1.0 | 2.0 | 0.00 | 0.00 | 0.00 | 69 | 1011.3 |
| 20260508152411 | 61 | 211 | 3.0 | 5.0 | 0.00 | 0.00 | 0.00 | 70 | 1011.4 |
| 20260508151907 | 61 | 208 | 1.0 | 1.0 | 0.00 | 0.00 | 0.00 | 71 | 1011.4 |
| 20260508151404 | 59 | 245 | 4.0 | 5.0 | 0.00 | 0.00 | 0.00 | 74 | 1011.3 |
| 20260508150900 | 59 | 220 | 1.0 | 1.0 | 0.00 | 0.00 | 0.00 | 74 | 1011.4 |
| 20260508150357 | 59 | 214 | 0.0 | 0.0 | 0.00 | 0.00 | 0.00 | 76 | 1011.2 |
| 20260508145853 | 58 | 218 | 1.0 | 1.0 | 0.00 | 0.00 | 0.00 | 76 | 1011.5 |
| 20260508145349 | 58 | 219 | 0.0 | 0.0 | 0.00 | 0.00 | 0.00 | 76 | 1011.5 |
| 20260508144846 | 58 | 223 | 1.0 | 1.0 | 0.00 | 0.00 | 0.00 | 77 | 1011.9 |
| 20260508144345 | 58 | 213 | 2.0 | 2.0 | 0.00 | 0.00 | 0.00 | 76 | 1012.0 |